Time;durP1;ratioP1;P1;durP2;ratioP2;P2;SDS_P1;SDS_P2;PMS_P1;PMS_P2;Temp;Humidity;BMP_temperature;BMP_pressure;BME280_temperature;BME280_humidity;BME280_pressure;Samples;Min_cycle;Max_cycle;Signal;HPM_P1;HPM_P2
2022/04/08 05:33:27;;;;;;;13.30;6.15;;;;;;;;;;5656409;23;20199;-65
2022/04/08 05:35:53;;;;;;;14.77;6.78;;;;;;;;;;4928814;29;20076;-65
2022/04/08 05:38:20;;;;;;;14.50;6.22;;;;;;;;;;4933288;29;20035;-67
2022/04/08 05:40:46;;;;;;;10.25;5.72;;;;;;;;;;4933133;29;20075;-65
2022/04/08 05:43:12;;;;;;;15.95;6.13;;;;;;;;;;4933178;29;20036;-65
2022/04/08 05:45:38;;;;;;;13.43;6.07;;;;;;;;;;4933044;29;20032;-66
2022/04/08 05:48:04;;;;;;;13.55;5.72;;;;;;;;;;4933446;29;20040;-66
2022/04/08 05:50:31;;;;;;;14.77;6.43;;;;;;;;;;4933172;29;20066;-66
2022/04/08 05:52:57;;;;;;;13.52;6.88;;;;;;;;;;4933240;29;20028;-66
2022/04/08 05:55:23;;;;;;;20.10;6.22;;;;;;;;;;4933317;29;20028;-66
2022/04/08 05:57:53;;;;;;;17.33;7.07;;;;;;;;;;4933517;29;20031;-62
2022/04/08 06:00:20;;;;;;;15.32;6.75;;;;;;;;;;4961222;28;20059;-65
2022/04/08 06:02:47;;;;;;;19.77;7.35;;;;;;;;;;4954181;28;20062;-63
2022/04/08 06:05:20;;;;;;;21.00;7.15;;;;;;;;;;4952099;29;20042;-63
2022/04/08 06:07:47;;;;;;;18.88;6.72;;;;;;;;;;4952435;29;20035;-60
2022/04/08 06:10:18;;;;;;;16.88;7.10;;;;;;;;;;4952373;29;20023;-68
2022/04/08 06:12:44;;;;;;;22.42;7.95;;;;;;;;;;4955056;29;20027;-65
2022/04/08 06:15:10;;;;;;;19.77;7.88;;;;;;;;;;4955860;29;20023;-65
2022/04/08 06:17:37;;;;;;;16.73;6.78;;;;;;;;;;4955637;29;20103;-64
2022/04/08 06:20:04;;;;;;;13.50;5.88;;;;;;;;;;4955459;29;20031;-64
2022/04/08 06:22:30;;;;;;;11.55;5.30;;;;;;;;;;4955600;29;20031;-63
2022/04/08 06:24:56;;;;;;;8.20;4.95;;;;;;;;;;4955562;29;20027;-65
2022/04/08 06:27:22;;;;;;;7.93;4.20;;;;;;;;;;4938089;29;20105;-68
2022/04/08 06:29:48;;;;;;;10.10;4.28;;;;;;;;;;4955320;29;20030;-65
2022/04/08 06:32:14;;;;;;;12.02;4.68;;;;;;;;;;4954616;29;20035;-65
2022/04/08 06:34:40;;;;;;;10.98;4.50;;;;;;;;;;4953625;29;20548;-66
2022/04/08 06:37:08;;;;;;;8.90;4.80;;;;;;;;;;4954451;29;20459;-64
2022/04/08 06:39:34;;;;;;;8.85;4.10;;;;;;;;;;4953819;29;20047;-64
2022/04/08 06:42:00;;;;;;;6.40;3.38;;;;;;;;;;4954036;29;20024;-64
2022/04/08 06:44:26;;;;;;;7.75;4.00;;;;;;;;;;4952201;29;20395;-62
2022/04/08 06:46:52;;;;;;;6.93;3.00;;;;;;;;;;4953866;29;20411;-67
2022/04/08 06:49:20;;;;;;;6.45;2.92;;;;;;;;;;4953847;29;20085;-65
2022/04/08 06:51:47;;;;;;;6.78;3.08;;;;;;;;;;4954928;29;20146;-69
2022/04/08 06:54:13;;;;;;;5.82;2.28;;;;;;;;;;4955907;29;20098;-63
2022/04/08 06:56:39;;;;;;;4.38;2.40;;;;;;;;;;4954123;29;20459;-63
2022/04/08 06:59:05;;;;;;;6.55;2.60;;;;;;;;;;4953637;29;20475;-63
2022/04/08 07:01:31;;;;;;;5.50;2.65;;;;;;;;;;4953679;29;20038;-63
2022/04/08 07:03:57;;;;;;;5.30;2.38;;;;;;;;;;4953339;29;20105;-67
2022/04/08 07:06:23;;;;;;;32.90;4.15;;;;;;;;;;4952836;29;20055;-63
2022/04/08 07:08:49;;;;;;;5.32;2.20;;;;;;;;;;4953445;29;20054;-62
2022/04/08 07:11:16;;;;;;;9.75;3.28;;;;;;;;;;4953326;29;20525;-62
2022/04/08 07:13:42;;;;;;;6.85;3.10;;;;;;;;;;4953195;29;20106;-63
2022/04/08 07:16:08;;;;;;;13.13;3.20;;;;;;;;;;4950500;29;20074;-63
2022/04/08 07:18:35;;;;;;;10.18;3.00;;;;;;;;;;4953131;29;20027;-63
2022/04/08 07:21:01;;;;;;;10.38;3.20;;;;;;;;;;4953057;29;20034;-63
2022/04/08 07:23:27;;;;;;;5.55;2.88;;;;;;;;;;4953082;28;20379;-63
2022/04/08 07:25:53;;;;;;;7.95;3.25;;;;;;;;;;4951307;29;20419;-63
2022/04/08 07:28:20;;;;;;;9.80;3.63;;;;;;;;;;4953246;29;20025;-64
2022/04/08 07:30:48;;;;;;;7.28;3.05;;;;;;;;;;4953642;29;20106;-62
2022/04/08 07:33:14;;;;;;;6.93;3.20;;;;;;;;;;4953513;29;20034;-62
2022/04/08 07:35:41;;;;;;;5.07;2.63;;;;;;;;;;4953196;29;20503;-64
2022/04/08 07:38:07;;;;;;;9.90;3.50;;;;;;;;;;4953286;29;20035;-63
2022/04/08 07:40:33;;;;;;;7.88;3.70;;;;;;;;;;4953724;29;20562;-63
2022/04/08 07:42:59;;;;;;;10.75;3.88;;;;;;;;;;4953667;29;20499;-64
2022/04/08 07:45:29;;;;;;;11.80;3.28;;;;;;;;;;4953764;29;20476;-63
2022/04/08 07:47:55;;;;;;;7.90;3.25;;;;;;;;;;4953758;29;20472;-63
2022/04/08 07:50:22;;;;;;;8.07;3.90;;;;;;;;;;4953710;29;20034;-63
2022/04/08 07:52:48;;;;;;;8.98;3.67;;;;;;;;;;4953448;29;20066;-64
2022/04/08 07:55:14;;;;;;;7.22;3.20;;;;;;;;;;4953576;29;20633;-65
2022/04/08 07:57:46;;;;;;;8.93;3.65;;;;;;;;;;4953972;29;20027;-63
2022/04/08 08:00:14;;;;;;;8.10;3.67;;;;;;;;;;4953602;29;20134;-63
2022/04/08 08:02:40;;;;;;;7.63;3.63;;;;;;;;;;4953419;29;20019;-62
2022/04/08 08:05:07;;;;;;;6.88;2.92;;;;;;;;;;4953225;29;20067;-64
2022/04/08 08:07:43;;;;;;;6.75;3.10;;;;;;;;;;4953372;29;20031;-62
2022/04/08 08:10:09;;;;;;;7.25;2.95;;;;;;;;;;4952716;29;20440;-63
2022/04/08 08:12:35;;;;;;;9.80;3.85;;;;;;;;;;4953307;29;20130;-63
2022/04/08 08:15:01;;;;;;;6.65;3.05;;;;;;;;;;4953478;29;20552;-62
2022/04/08 08:17:27;;;;;;;6.22;3.05;;;;;;;;;;4952906;29;20051;-62
2022/04/08 08:19:53;;;;;;;6.80;3.30;;;;;;;;;;4952519;29;20031;-62
2022/04/08 08:22:20;;;;;;;8.38;3.03;;;;;;;;;;4952399;29;20031;-62
2022/04/08 08:24:46;;;;;;;6.43;2.80;;;;;;;;;;4952361;29;20042;-66
2022/04/08 08:27:12;;;;;;;8.38;3.35;;;;;;;;;;4952888;29;20043;-62
2022/04/08 08:29:39;;;;;;;6.75;2.65;;;;;;;;;;4953176;29;20035;-63
2022/04/08 08:32:05;;;;;;;6.90;2.92;;;;;;;;;;4953455;29;20039;-63
2022/04/08 08:34:31;;;;;;;7.75;3.00;;;;;;;;;;4951983;28;20515;-65
2022/04/08 08:36:59;;;;;;;7.65;3.00;;;;;;;;;;4952342;29;20506;-63
2022/04/08 08:39:26;;;;;;;7.47;2.90;;;;;;;;;;4952484;29;20404;-62
2022/04/08 08:41:52;;;;;;;13.10;4.15;;;;;;;;;;4953057;29;20046;-63
2022/04/08 08:44:19;;;;;;;8.57;2.92;;;;;;;;;;4952837;29;20031;-62
2022/04/08 08:46:45;;;;;;;9.75;3.30;;;;;;;;;;4952807;29;20380;-64
2022/04/08 08:49:12;;;;;;;6.38;3.13;;;;;;;;;;4951411;29;20031;-62
2022/04/08 08:51:39;;;;;;;10.20;3.95;;;;;;;;;;4951358;29;20030;-63
2022/04/08 08:54:05;;;;;;;6.68;3.58;;;;;;;;;;4952068;29;20108;-63
2022/04/08 08:56:32;;;;;;;11.98;3.95;;;;;;;;;;4951751;29;20114;-65
2022/04/08 08:58:58;;;;;;;7.65;3.03;;;;;;;;;;4951812;29;20146;-62
2022/04/08 09:01:24;;;;;;;9.20;3.70;;;;;;;;;;4951096;29;20027;-66
2022/04/08 09:03:50;;;;;;;5.78;2.75;;;;;;;;;;4951003;29;20493;-63
2022/04/08 09:06:17;;;;;;;7.50;3.30;;;;;;;;;;4952268;29;20491;-63
2022/04/08 09:08:53;;;;;;;7.32;3.50;;;;;;;;;;4951300;29;20023;-63
2022/04/08 09:11:24;;;;;;;8.98;2.63;;;;;;;;;;4950401;29;20403;-64
2022/04/08 09:13:50;;;;;;;5.22;2.83;;;;;;;;;;4952541;29;20023;-63
2022/04/08 09:16:25;;;;;;;10.20;2.80;;;;;;;;;;4951454;29;20037;-62
2022/04/08 09:18:51;;;;;;;6.82;2.85;;;;;;;;;;4951495;29;20027;-63
2022/04/08 09:21:26;;;;;;;7.00;2.83;;;;;;;;;;4952086;29;20369;-64
2022/04/08 09:23:53;;;;;;;8.50;2.97;;;;;;;;;;4951902;29;20549;-64
2022/04/08 09:26:19;;;;;;;8.50;3.13;;;;;;;;;;4952118;29;20130;-64
2022/04/08 09:28:45;;;;;;;7.38;2.90;;;;;;;;;;4951766;29;20016;-65
2022/04/08 09:31:22;;;;;;;7.20;2.85;;;;;;;;;;4951752;29;20100;-64
2022/04/08 09:33:52;;;;;;;7.38;3.00;;;;;;;;;;4949161;29;20951;-63
2022/04/08 09:36:27;;;;;;;8.57;2.78;;;;;;;;;;4950787;29;20435;-63
2022/04/08 09:38:54;;;;;;;6.45;2.50;;;;;;;;;;4950783;29;20020;-63
2022/04/08 09:41:20;;;;;;;5.72;3.00;;;;;;;;;;4951373;29;20032;-64
2022/04/08 09:43:46;;;;;;;8.15;3.28;;;;;;;;;;4951460;29;20019;-63
2022/04/08 09:46:15;;;;;;;5.50;2.90;;;;;;;;;;4951321;28;20094;-65
2022/04/08 09:48:41;;;;;;;11.13;3.13;;;;;;;;;;4952830;29;20027;-65
2022/04/08 09:51:09;;;;;;;6.13;3.03;;;;;;;;;;4954919;29;20025;-63
2022/04/08 09:53:41;;;;;;;9.23;3.17;;;;;;;;;;4954973;29;20454;-64
2022/04/08 09:56:10;;;;;;;6.50;2.50;;;;;;;;;;4953053;29;20050;-65
2022/04/08 09:58:37;;;;;;;6.72;2.40;;;;;;;;;;4955102;29;20488;-63
2022/04/08 10:01:03;;;;;;;6.70;2.63;;;;;;;;;;4952059;29;20032;-63
2022/04/08 10:03:30;;;;;;;9.55;3.00;;;;;;;;;;4954846;29;20100;-63
2022/04/08 10:05:56;;;;;;;7.70;2.83;;;;;;;;;;4954508;29;20492;-66
2022/04/08 10:08:23;;;;;;;8.35;3.33;;;;;;;;;;4955438;29;20024;-63
2022/04/08 10:10:51;;;;;;;6.10;2.67;;;;;;;;;;4955469;29;20031;-62
2022/04/08 10:13:37;;;;;;;9.18;3.00;;;;;;;;;;4954762;29;20027;-62
2022/04/08 10:16:03;;;;;;;8.43;3.00;;;;;;;;;;4953879;29;20043;-63
2022/04/08 10:18:36;;;;;;;6.97;2.35;;;;;;;;;;4948440;29;20571;-62
2022/04/08 10:21:02;;;;;;;11.05;3.33;;;;;;;;;;4949403;29;20090;-63
2022/04/08 10:23:39;;;;;;;7.57;2.85;;;;;;;;;;4952365;29;20023;-63
2022/04/08 10:26:06;;;;;;;6.25;2.60;;;;;;;;;;4952786;29;20039;-62
2022/04/08 10:28:36;;;;;;;5.88;2.10;;;;;;;;;;4952122;29;20023;-62
2022/04/08 10:31:02;;;;;;;9.00;2.78;;;;;;;;;;4954342;29;20034;-63
2022/04/08 10:33:30;;;;;;;8.35;2.75;;;;;;;;;;4953884;29;20086;-63
2022/04/08 10:36:00;;;;;;;8.50;3.20;;;;;;;;;;4953552;29;20134;-62
2022/04/08 10:38:36;;;;;;;9.80;3.60;;;;;;;;;;4954582;29;20019;-62
2022/04/08 10:41:07;;;;;;;18.75;3.30;;;;;;;;;;4955412;29;20411;-63
2022/04/08 10:43:42;;;;;;;5.97;2.58;;;;;;;;;;4955016;29;20078;-63
2022/04/08 10:46:08;;;;;;;8.63;2.33;;;;;;;;;;4954694;29;20019;-63
2022/04/08 10:48:34;;;;;;;7.38;2.92;;;;;;;;;;4954853;29;20035;-63
2022/04/08 10:51:11;;;;;;;4.97;2.50;;;;;;;;;;4954297;29;20015;-64
2022/04/08 10:53:40;;;;;;;7.07;2.67;;;;;;;;;;4954754;29;20031;-62
2022/04/08 10:56:12;;;;;;;6.88;2.53;;;;;;;;;;4954825;29;20082;-65
2022/04/08 10:58:44;;;;;;;7.15;2.47;;;;;;;;;;4952914;28;20062;-62
2022/04/08 11:01:14;;;;;;;6.53;2.92;;;;;;;;;;4954640;29;20054;-63
2022/04/08 11:03:45;;;;;;;7.35;2.90;;;;;;;;;;4954168;29;20063;-63
2022/04/08 11:06:12;;;;;;;5.35;2.72;;;;;;;;;;4952037;29;20039;-63
2022/04/08 11:08:38;;;;;;;10.10;3.10;;;;;;;;;;4954624;29;20027;-65
2022/04/08 11:11:04;;;;;;;8.75;3.35;;;;;;;;;;4953644;29;20035;-63
2022/04/08 11:13:31;;;;;;;9.25;3.05;;;;;;;;;;4954704;29;20062;-64
2022/04/08 11:15:57;;;;;;;7.88;3.50;;;;;;;;;;4953801;29;20027;-64
2022/04/08 11:18:26;;;;;;;8.75;3.28;;;;;;;;;;4954429;29;20023;-65
2022/04/08 11:20:52;;;;;;;9.00;3.50;;;;;;;;;;4954349;29;20057;-63
2022/04/08 11:23:27;;;;;;;5.57;3.53;;;;;;;;;;4954364;29;20054;-64
2022/04/08 11:25:54;;;;;;;6.22;2.70;;;;;;;;;;4954477;29;20035;-64
2022/04/08 11:28:22;;;;;;;8.43;3.95;;;;;;;;;;4954280;29;20035;-64
2022/04/08 11:30:54;;;;;;;9.02;3.38;;;;;;;;;;4954337;29;20094;-61
2022/04/08 11:33:20;;;;;;;9.60;3.60;;;;;;;;;;4953565;29;20027;-62
2022/04/08 11:35:47;;;;;;;8.45;3.42;;;;;;;;;;4952920;29;20434;-63
2022/04/08 11:38:13;;;;;;;7.32;3.60;;;;;;;;;;4953858;29;20471;-63
2022/04/08 11:40:39;;;;;;;9.48;3.70;;;;;;;;;;4953670;29;20035;-62
2022/04/08 11:43:06;;;;;;;9.38;3.88;;;;;;;;;;4953457;29;20034;-62
2022/04/08 11:45:32;;;;;;;17.35;7.57;;;;;;;;;;4953193;29;20368;-62
2022/04/08 11:47:58;;;;;;;11.80;5.55;;;;;;;;;;4953347;29;20050;-62
2022/04/08 11:50:25;;;;;;;9.13;4.18;;;;;;;;;;4942226;29;20027;-64
2022/04/08 11:52:52;;;;;;;10.98;4.90;;;;;;;;;;4953253;29;20023;-63
2022/04/08 11:55:22;;;;;;;8.23;4.07;;;;;;;;;;4954091;29;20031;-63
2022/04/08 11:57:48;;;;;;;11.35;4.13;;;;;;;;;;4952994;29;20487;-63
2022/04/08 12:00:14;;;;;;;6.55;3.42;;;;;;;;;;4952251;29;20425;-63
2022/04/08 12:02:41;;;;;;;11.25;3.97;;;;;;;;;;4952136;29;20023;-63
2022/04/08 12:05:08;;;;;;;9.35;4.00;;;;;;;;;;4951998;29;20023;-63
2022/04/08 12:07:34;;;;;;;6.57;3.67;;;;;;;;;;4951413;29;20039;-63
2022/04/08 12:10:01;;;;;;;9.27;3.88;;;;;;;;;;4951159;28;20026;-62
2022/04/08 12:12:31;;;;;;;5.80;3.45;;;;;;;;;;4952007;29;20071;-64
2022/04/08 12:15:18;;;;;;;8.68;4.00;;;;;;;;;;4951283;29;20469;-63
2022/04/08 12:17:44;;;;;;;9.85;4.53;;;;;;;;;;4941641;29;20050;-63
2022/04/08 12:20:13;;;;;;;10.13;4.65;;;;;;;;;;4952146;29;20424;-63
2022/04/08 12:22:40;;;;;;;9.25;4.78;;;;;;;;;;4951751;29;20030;-63
2022/04/08 12:25:06;;;;;;;8.98;4.10;;;;;;;;;;4952164;29;20016;-63
2022/04/08 12:27:32;;;;;;;8.85;3.83;;;;;;;;;;4951582;29;20038;-63
2022/04/08 12:29:59;;;;;;;8.63;4.30;;;;;;;;;;4951367;29;20428;-63
2022/04/08 12:32:33;;;;;;;9.15;4.05;;;;;;;;;;4951291;29;20476;-63
2022/04/08 12:34:59;;;;;;;11.35;4.60;;;;;;;;;;4949270;29;20523;-64
2022/04/08 12:37:25;;;;;;;9.95;4.28;;;;;;;;;;4952687;29;20039;-64
2022/04/08 12:39:51;;;;;;;8.63;3.58;;;;;;;;;;4951864;29;20027;-64
2022/04/08 12:42:17;;;;;;;5.43;3.28;;;;;;;;;;4953210;29;20035;-64
2022/04/08 12:44:43;;;;;;;10.43;3.85;;;;;;;;;;4953149;29;20038;-64
2022/04/08 12:47:10;;;;;;;8.93;3.22;;;;;;;;;;4952547;29;20394;-63
2022/04/08 12:49:36;;;;;;;6.20;3.40;;;;;;;;;;4952684;29;20391;-63
2022/04/08 12:52:03;;;;;;;7.55;2.78;;;;;;;;;;4952269;29;20503;-64
2022/04/08 12:54:29;;;;;;;8.32;3.20;;;;;;;;;;4952570;29;20130;-62
2022/04/08 12:56:55;;;;;;;8.02;3.42;;;;;;;;;;4952982;29;20034;-63
2022/04/08 12:59:21;;;;;;;10.25;3.72;;;;;;;;;;4952451;29;20034;-63
2022/04/08 13:01:47;;;;;;;8.13;4.30;;;;;;;;;;4952551;29;20023;-61
2022/04/08 13:04:13;;;;;;;11.63;5.60;;;;;;;;;;4952363;29;20019;-62
2022/04/08 13:06:40;;;;;;;15.45;5.47;;;;;;;;;;4952077;29;20103;-64
2022/04/08 13:09:06;;;;;;;9.60;5.20;;;;;;;;;;4952512;29;20043;-62
2022/04/08 13:11:33;;;;;;;11.35;5.30;;;;;;;;;;4952593;29;20102;-64
2022/04/08 13:14:00;;;;;;;12.70;6.68;;;;;;;;;;4952501;29;20376;-64
2022/04/08 13:16:26;;;;;;;14.30;5.93;;;;;;;;;;4951893;29;20042;-63
2022/04/08 13:18:52;;;;;;;11.10;6.20;;;;;;;;;;4952248;29;20054;-63
2022/04/08 13:21:18;;;;;;;12.27;5.70;;;;;;;;;;4954787;28;20054;-63
2022/04/08 13:23:45;;;;;;;12.68;6.32;;;;;;;;;;4955698;29;20388;-63
2022/04/08 13:26:11;;;;;;;10.65;5.50;;;;;;;;;;4956122;29;20036;-61
2022/04/08 13:28:37;;;;;;;12.32;6.03;;;;;;;;;;4956412;29;20122;-64
2022/04/08 13:31:03;;;;;;;9.95;5.72;;;;;;;;;;4956063;29;20038;-64
2022/04/08 13:33:29;;;;;;;15.98;6.65;;;;;;;;;;4955666;29;20476;-64
2022/04/08 13:35:57;;;;;;;16.00;6.55;;;;;;;;;;4956110;29;20595;-63
2022/04/08 13:38:25;;;;;;;12.82;7.00;;;;;;;;;;4956078;29;20120;-64
2022/04/08 13:40:52;;;;;;;13.43;6.65;;;;;;;;;;4956299;29;20023;-63
2022/04/08 13:43:18;;;;;;;10.45;6.50;;;;;;;;;;4955830;29;20034;-63
2022/04/08 13:45:44;;;;;;;16.90;7.25;;;;;;;;;;4955566;29;20024;-64
2022/04/08 13:48:10;;;;;;;13.75;7.72;;;;;;;;;;4955719;29;20069;-64
2022/04/08 13:50:36;;;;;;;14.80;7.72;;;;;;;;;;4955980;29;20511;-63
2022/04/08 13:53:02;;;;;;;13.50;7.88;;;;;;;;;;4955810;29;20174;-62
2022/04/08 13:55:28;;;;;;;14.68;8.02;;;;;;;;;;4955966;29;20380;-62
2022/04/08 13:57:54;;;;;;;15.52;8.27;;;;;;;;;;4955487;29;20462;-62
2022/04/08 14:00:20;;;;;;;17.60;8.68;;;;;;;;;;4955404;29;20480;-63
2022/04/08 14:02:46;;;;;;;17.00;7.72;;;;;;;;;;4955993;29;20075;-62
2022/04/08 14:05:13;;;;;;;19.40;7.40;;;;;;;;;;4955792;29;20031;-62
2022/04/08 14:07:39;;;;;;;15.68;7.32;;;;;;;;;;4955538;29;20122;-64
2022/04/08 14:10:05;;;;;;;11.88;7.05;;;;;;;;;;4954637;29;20490;-64
2022/04/08 14:12:32;;;;;;;13.20;7.25;;;;;;;;;;4954307;29;20054;-62
2022/04/08 14:14:58;;;;;;;13.32;7.20;;;;;;;;;;4954589;29;20755;-63
2022/04/08 14:17:24;;;;;;;10.90;6.55;;;;;;;;;;4954635;29;20411;-64
2022/04/08 14:19:50;;;;;;;11.43;6.85;;;;;;;;;;4953244;29;20081;-64
2022/04/08 14:22:16;;;;;;;12.23;7.25;;;;;;;;;;4955132;29;20062;-64
2022/04/08 14:24:42;;;;;;;12.68;6.95;;;;;;;;;;4955325;29;20488;-63
2022/04/08 14:27:08;;;;;;;13.38;7.13;;;;;;;;;;4955218;29;20043;-61
2022/04/08 14:29:34;;;;;;;13.82;6.82;;;;;;;;;;4955021;29;20087;-62
2022/04/08 14:32:00;;;;;;;11.90;5.82;;;;;;;;;;4954018;28;20054;-63
2022/04/08 14:34:26;;;;;;;11.32;6.55;;;;;;;;;;4955335;29;20043;-62
2022/04/08 14:36:53;;;;;;;12.65;5.90;;;;;;;;;;4954850;29;20146;-63
2022/04/08 14:39:19;;;;;;;11.20;5.93;;;;;;;;;;4955109;29;20039;-63
2022/04/08 14:41:45;;;;;;;12.30;5.82;;;;;;;;;;4954679;29;20031;-63
2022/04/08 14:44:11;;;;;;;13.43;6.32;;;;;;;;;;4954979;29;20058;-63
2022/04/08 14:46:37;;;;;;;14.18;5.85;;;;;;;;;;4955034;29;20090;-63
2022/04/08 14:49:03;;;;;;;16.15;6.07;;;;;;;;;;4955197;29;20023;-63
2022/04/08 14:51:30;;;;;;;12.25;6.00;;;;;;;;;;4954197;29;20504;-63
2022/04/08 14:53:56;;;;;;;12.73;5.68;;;;;;;;;;4955003;29;20110;-63
2022/04/08 14:56:23;;;;;;;11.18;5.32;;;;;;;;;;4954973;29;20027;-63
2022/04/08 14:58:49;;;;;;;12.57;5.53;;;;;;;;;;4954610;29;20035;-63
2022/04/08 15:01:15;;;;;;;12.10;4.88;;;;;;;;;;4954802;29;20031;-65
2022/04/08 15:03:42;;;;;;;12.73;5.22;;;;;;;;;;4954560;29;20050;-65
2022/04/08 15:06:09;;;;;;;11.93;5.22;;;;;;;;;;4954456;29;20062;-66
2022/04/08 15:08:35;;;;;;;13.15;5.47;;;;;;;;;;4954813;29;20063;-65
2022/04/08 15:11:04;;;;;;;16.02;5.60;;;;;;;;;;4954815;29;20028;-66
2022/04/08 15:13:31;;;;;;;11.07;4.90;;;;;;;;;;4954632;29;20028;-63
2022/04/08 15:15:57;;;;;;;15.38;5.25;;;;;;;;;;4954628;29;20767;-65
2022/04/08 15:18:26;;;;;;;14.38;5.53;;;;;;;;;;4954422;29;20034;-65
2022/04/08 15:20:53;;;;;;;11.27;5.32;;;;;;;;;;4954766;29;20027;-64
2022/04/08 15:23:19;;;;;;;15.52;5.35;;;;;;;;;;4954176;29;20031;-66
2022/04/08 15:25:45;;;;;;;11.68;5.45;;;;;;;;;;4952973;29;20423;-65
2022/04/08 15:28:12;;;;;;;12.43;5.38;;;;;;;;;;4954364;29;20119;-65
2022/04/08 15:30:38;;;;;;;13.18;5.60;;;;;;;;;;4954089;29;20106;-66
2022/04/08 15:33:04;;;;;;;11.70;5.13;;;;;;;;;;4954035;29;20078;-66
2022/04/08 15:35:34;;;;;;;13.70;5.38;;;;;;;;;;4954123;29;20068;-65
2022/04/08 15:38:01;;;;;;;11.55;6.13;;;;;;;;;;4953795;29;20042;-64
2022/04/08 15:40:29;;;;;;;13.95;5.40;;;;;;;;;;4954324;29;20111;-65
2022/04/08 15:42:56;;;;;;;11.65;5.25;;;;;;;;;;4954420;29;20031;-66
2022/04/08 15:45:23;;;;;;;12.60;5.72;;;;;;;;;;4954288;29;20087;-67
2022/04/08 15:47:49;;;;;;;13.93;5.00;;;;;;;;;;4957276;28;20042;-66
2022/04/08 15:50:16;;;;;;;10.82;4.95;;;;;;;;;;4973154;28;20038;-63
2022/04/08 15:52:43;;;;;;;11.13;4.75;;;;;;;;;;4964407;28;20031;-64
2022/04/08 15:55:09;;;;;;;10.20;5.28;;;;;;;;;;4958112;28;20031;-64
2022/04/08 15:57:36;;;;;;;14.27;4.75;;;;;;;;;;4953841;29;20118;-65
2022/04/08 16:00:03;;;;;;;10.40;5.10;;;;;;;;;;4955085;28;20034;-63
2022/04/08 16:02:29;;;;;;;10.20;5.18;;;;;;;;;;4953371;29;20032;-65
2022/04/08 16:04:55;;;;;;;10.98;5.07;;;;;;;;;;4953570;29;20352;-65
2022/04/08 16:07:22;;;;;;;10.52;4.82;;;;;;;;;;4952982;29;20035;-66
2022/04/08 16:09:48;;;;;;;12.40;5.25;;;;;;;;;;4953221;29;20027;-65
2022/04/08 16:12:14;;;;;;;8.18;5.07;;;;;;;;;;4953609;29;20564;-64
2022/04/08 16:14:40;;;;;;;9.77;4.80;;;;;;;;;;4953259;29;20488;-67
2022/04/08 16:17:07;;;;;;;13.95;4.97;;;;;;;;;;4951716;29;20024;-64
2022/04/08 16:19:33;;;;;;;14.20;5.38;;;;;;;;;;4951018;29;20035;-63
2022/04/08 16:21:59;;;;;;;11.52;4.90;;;;;;;;;;4953218;29;20388;-66
2022/04/08 16:24:25;;;;;;;13.73;4.95;;;;;;;;;;4952100;29;20031;-64
2022/04/08 16:26:52;;;;;;;10.77;5.07;;;;;;;;;;4946628;29;20075;-69
2022/04/08 16:29:18;;;;;;;11.02;5.05;;;;;;;;;;4951003;29;20066;-66
2022/04/08 16:31:44;;;;;;;13.43;5.85;;;;;;;;;;4952074;29;20019;-63
2022/04/08 16:34:11;;;;;;;13.32;5.35;;;;;;;;;;4948763;29;20511;-65
2022/04/08 16:36:37;;;;;;;11.43;5.85;;;;;;;;;;4952189;29;20043;-65
2022/04/08 16:39:04;;;;;;;12.10;5.00;;;;;;;;;;4952552;29;20085;-66
2022/04/08 16:41:30;;;;;;;12.27;5.22;;;;;;;;;;4942704;29;20031;-64
2022/04/08 16:43:59;;;;;;;11.38;5.68;;;;;;;;;;4945119;29;20027;-66
2022/04/08 16:46:25;;;;;;;13.27;5.68;;;;;;;;;;4950088;29;20073;-67
2022/04/08 16:48:51;;;;;;;15.40;6.43;;;;;;;;;;4951971;29;20023;-65
2022/04/08 16:51:17;;;;;;;16.88;6.97;;;;;;;;;;4951958;29;20027;-65
2022/04/08 16:53:43;;;;;;;14.65;7.20;;;;;;;;;;4952282;29;20027;-65
2022/04/08 16:56:09;;;;;;;13.93;7.70;;;;;;;;;;4951237;28;20031;-64
2022/04/08 16:58:36;;;;;;;17.80;7.30;;;;;;;;;;4952124;29;20110;-66
2022/04/08 17:01:02;;;;;;;18.77;8.00;;;;;;;;;;4952415;29;20034;-66
2022/04/08 17:03:28;;;;;;;15.00;8.18;;;;;;;;;;4952040;29;20054;-66
2022/04/08 17:05:54;;;;;;;18.88;8.68;;;;;;;;;;4952230;29;20039;-68
2022/04/08 17:08:20;;;;;;;19.20;7.65;;;;;;;;;;4952490;29;20047;-65
2022/04/08 17:10:47;;;;;;;17.75;8.57;;;;;;;;;;4952465;29;20501;-65
2022/04/08 17:13:13;;;;;;;18.88;9.02;;;;;;;;;;4952433;29;20427;-65
2022/04/08 17:15:39;;;;;;;18.27;8.85;;;;;;;;;;4952013;29;20059;-65
2022/04/08 17:18:06;;;;;;;14.75;8.07;;;;;;;;;;4951722;29;20110;-65
2022/04/08 17:20:32;;;;;;;18.80;8.23;;;;;;;;;;4951796;29;20023;-64
2022/04/08 17:23:01;;;;;;;18.00;7.65;;;;;;;;;;4952086;29;20392;-70
2022/04/08 17:25:27;;;;;;;18.13;7.13;;;;;;;;;;4952229;29;20110;-69
2022/04/08 17:27:53;;;;;;;16.60;7.30;;;;;;;;;;4951790;29;20399;-69
2022/04/08 17:30:19;;;;;;;18.23;7.90;;;;;;;;;;4952120;29;20429;-69
2022/04/08 17:32:45;;;;;;;17.73;8.02;;;;;;;;;;4951373;29;20043;-70
2022/04/08 17:35:11;;;;;;;15.20;7.68;;;;;;;;;;4951468;29;20082;-66
2022/04/08 17:37:37;;;;;;;19.33;7.63;;;;;;;;;;4951901;29;20487;-66
2022/04/08 17:40:06;;;;;;;16.10;7.50;;;;;;;;;;4952167;29;20480;-70
2022/04/08 17:42:35;;;;;;;14.32;7.63;;;;;;;;;;4952115;29;20086;-66
2022/04/08 17:45:01;;;;;;;15.77;6.68;;;;;;;;;;4952120;29;20031;-70
2022/04/08 17:47:27;;;;;;;15.25;7.10;;;;;;;;;;4951643;29;20115;-71
2022/04/08 17:49:54;;;;;;;17.33;7.47;;;;;;;;;;4952222;29;20027;-69
2022/04/08 17:52:20;;;;;;;19.85;7.95;;;;;;;;;;4951917;29;20031;-68
2022/04/08 17:54:46;;;;;;;22.73;8.05;;;;;;;;;;4952063;29;20031;-70
2022/04/08 17:57:12;;;;;;;16.83;7.55;;;;;;;;;;4952320;29;20024;-69
2022/04/08 17:59:38;;;;;;;24.10;8.02;;;;;;;;;;4952139;29;20023;-68
2022/04/08 18:02:07;;;;;;;15.63;6.68;;;;;;;;;;4949926;29;20027;-70
2022/04/08 18:04:37;;;;;;;12.88;6.97;;;;;;;;;;4951660;29;20038;-70
2022/04/08 18:07:05;;;;;;;19.75;7.30;;;;;;;;;;4951269;28;20035;-72
2022/04/08 18:09:31;;;;;;;14.23;6.82;;;;;;;;;;4955592;29;20031;-68
2022/04/08 18:11:57;;;;;;;20.30;8.57;;;;;;;;;;4954933;29;20428;-69
2022/04/08 18:14:23;;;;;;;14.90;7.25;;;;;;;;;;4955487;29;20034;-64
2022/04/08 18:16:49;;;;;;;18.13;8.00;;;;;;;;;;4954985;29;20023;-67
2022/04/08 18:19:15;;;;;;;20.25;8.90;;;;;;;;;;4955295;29;20032;-71
2022/04/08 18:21:41;;;;;;;19.17;7.90;;;;;;;;;;4955121;29;20027;-68
2022/04/08 18:24:07;;;;;;;18.45;8.07;;;;;;;;;;4954975;29;20035;-67
2022/04/08 18:26:34;;;;;;;21.88;8.73;;;;;;;;;;4954778;29;20043;-70
2022/04/08 18:29:00;;;;;;;20.70;9.13;;;;;;;;;;4955206;29;20050;-71
2022/04/08 18:31:26;;;;;;;19.10;8.57;;;;;;;;;;4955014;29;20031;-67
2022/04/08 18:33:53;;;;;;;23.20;10.35;;;;;;;;;;4954502;29;20451;-67
2022/04/08 18:36:19;;;;;;;22.13;10.27;;;;;;;;;;4954325;29;20491;-67
2022/04/08 18:38:45;;;;;;;23.33;11.00;;;;;;;;;;4954822;29;20035;-63
2022/04/08 18:41:12;;;;;;;33.70;15.18;;;;;;;;;;4955007;29;20030;-67
2022/04/08 18:43:38;;;;;;;32.22;13.85;;;;;;;;;;4955377;29;20020;-63
2022/04/08 18:46:04;;;;;;;30.27;14.27;;;;;;;;;;4954802;29;20027;-64
2022/04/08 18:48:30;;;;;;;32.15;13.57;;;;;;;;;;4954598;29;20031;-65
2022/04/08 18:51:00;;;;;;;31.75;13.40;;;;;;;;;;4954214;29;20027;-66
2022/04/08 18:53:26;;;;;;;24.35;11.20;;;;;;;;;;4953007;29;20073;-64
2022/04/08 18:55:52;;;;;;;27.00;11.07;;;;;;;;;;4953671;29;20408;-68
2022/04/08 18:58:18;;;;;;;16.98;7.97;;;;;;;;;;4952236;29;20456;-68
2022/04/08 19:00:44;;;;;;;20.00;8.52;;;;;;;;;;4953824;29;20023;-63
2022/04/08 19:03:10;;;;;;;27.02;10.40;;;;;;;;;;4954685;29;20027;-69
2022/04/08 19:05:38;;;;;;;18.15;9.02;;;;;;;;;;4955081;29;20055;-65
2022/04/08 19:08:04;;;;;;;18.38;9.60;;;;;;;;;;4954816;29;20518;-72
2022/04/08 19:10:30;;;;;;;15.77;7.85;;;;;;;;;;4954780;29;20034;-65
2022/04/08 19:12:57;;;;;;;14.95;7.28;;;;;;;;;;4954532;29;20106;-71
2022/04/08 19:15:23;;;;;;;12.00;6.15;;;;;;;;;;4954572;29;20023;-66
2022/04/08 19:17:49;;;;;;;13.90;5.53;;;;;;;;;;4954333;28;20027;-67
2022/04/08 19:20:15;;;;;;;11.95;5.07;;;;;;;;;;4954501;29;20030;-67
2022/04/08 19:22:41;;;;;;;15.07;6.43;;;;;;;;;;4954352;29;20031;-69
2022/04/08 19:25:08;;;;;;;9.23;5.18;;;;;;;;;;4954066;29;20498;-68
2022/04/08 19:27:34;;;;;;;16.40;6.38;;;;;;;;;;4954282;29;20421;-63
2022/04/08 19:30:00;;;;;;;15.77;6.28;;;;;;;;;;4954208;29;20361;-64
2022/04/08 19:32:27;;;;;;;14.25;5.45;;;;;;;;;;4954274;29;20023;-64
2022/04/08 19:34:53;;;;;;;9.63;5.40;;;;;;;;;;4954231;29;20046;-70
2022/04/08 19:37:20;;;;;;;14.45;6.72;;;;;;;;;;4953939;29;20113;-65
2022/04/08 19:39:46;;;;;;;10.48;4.85;;;;;;;;;;4952615;29;20068;-64
2022/04/08 19:42:12;;;;;;;11.82;4.70;;;;;;;;;;4954111;29;20109;-65
2022/04/08 19:44:38;;;;;;;10.45;5.18;;;;;;;;;;4953728;29;20027;-64
2022/04/08 19:47:06;;;;;;;16.65;6.90;;;;;;;;;;4953387;29;20031;-67
2022/04/08 19:49:34;;;;;;;16.98;6.70;;;;;;;;;;4953689;29;20034;-64
2022/04/08 19:52:00;;;;;;;15.13;6.38;;;;;;;;;;4953579;29;20041;-69
2022/04/08 19:54:26;;;;;;;16.92;8.27;;;;;;;;;;4953544;29;20476;-64
2022/04/08 19:56:52;;;;;;;17.90;7.00;;;;;;;;;;4953936;29;20038;-63
2022/04/08 19:59:18;;;;;;;13.95;7.38;;;;;;;;;;4953818;29;20388;-66
2022/04/08 20:01:44;;;;;;;21.58;7.93;;;;;;;;;;4953576;29;20031;-63
2022/04/08 20:04:10;;;;;;;14.05;6.30;;;;;;;;;;4953858;29;20027;-64
2022/04/08 20:06:37;;;;;;;10.95;5.45;;;;;;;;;;4953298;29;20039;-64